createdAt,value
2018-04-08T00:01:57.284Z,11.93
2018-04-08T00:04:23.434Z,10.83
2018-04-08T00:06:51.364Z,12.80
2018-04-08T00:09:17.625Z,12.30
2018-04-08T00:11:43.734Z,14.97
2018-04-08T00:14:09.841Z,12.70
2018-04-08T00:16:35.955Z,15.10
2018-04-08T00:19:02.072Z,14.70
2018-04-08T00:21:28.174Z,12.70
2018-04-08T00:23:54.309Z,15.00
2018-04-08T00:26:20.467Z,13.37
2018-04-08T00:28:46.616Z,13.10
2018-04-08T00:31:12.751Z,11.90
2018-04-08T00:33:38.834Z,13.13
2018-04-08T00:36:05.745Z,13.50
2018-04-08T00:38:31.867Z,14.50
2018-04-08T00:40:58.024Z,10.80
2018-04-08T00:43:24.138Z,10.90
2018-04-08T00:45:50.266Z,9.27
2018-04-08T00:48:16.565Z,9.83
2018-04-08T00:50:42.720Z,9.30
2018-04-08T00:53:08.859Z,9.00
2018-04-08T00:55:34.970Z,9.80
2018-04-08T00:58:01.231Z,9.83
2018-04-08T01:00:27.367Z,9.00
2018-04-08T01:02:53.486Z,7.43
2018-04-08T01:05:19.630Z,8.13
2018-04-08T01:07:45.934Z,8.30
2018-04-08T01:10:12.054Z,7.70
2018-04-08T01:12:38.919Z,8.13
2018-04-08T01:15:05.387Z,7.53
2018-04-08T01:17:31.552Z,7.67
2018-04-08T01:19:57.666Z,7.27
2018-04-08T01:22:24.007Z,8.60
2018-04-08T01:24:50.130Z,7.27
2018-04-08T01:27:17.051Z,7.47
2018-04-08T01:29:43.258Z,7.20
2018-04-08T01:32:09.407Z,8.13
2018-04-08T01:34:35.515Z,9.80
2018-04-08T01:37:02.121Z,11.60
2018-04-08T01:39:28.290Z,10.90
2018-04-08T01:41:55.127Z,10.80
2018-04-08T01:44:22.026Z,12.53
2018-04-08T01:46:48.165Z,13.77
2018-04-08T01:49:14.289Z,14.80
2018-04-08T01:51:40.358Z,10.83
2018-04-08T01:54:06.455Z,12.20
2018-04-08T01:56:32.761Z,9.30
2018-04-08T01:58:58.850Z,9.00
2018-04-08T02:01:24.994Z,8.90
2018-04-08T02:03:51.123Z,9.37
2018-04-08T02:06:17.226Z,9.50
2018-04-08T02:08:43.328Z,10.00
2018-04-08T02:11:09.416Z,10.60
2018-04-08T02:13:36.246Z,11.77
2018-04-08T02:16:02.405Z,9.90
2018-04-08T02:18:29.234Z,9.63
2018-04-08T02:20:55.379Z,8.93
2018-04-08T02:23:21.490Z,8.20
2018-04-08T02:25:47.682Z,8.37
2018-04-08T02:28:14.513Z,9.63
2018-04-08T02:30:40.652Z,10.30
2018-04-08T02:33:06.744Z,9.20
2018-04-08T02:35:32.850Z,10.10
2018-04-08T02:37:58.957Z,9.73
2018-04-08T02:40:25.060Z,10.17
2018-04-08T02:42:51.163Z,10.27
2018-04-08T02:45:18.030Z,9.63
2018-04-08T02:47:44.167Z,9.73
2018-04-08T02:50:11.062Z,10.27
2018-04-08T02:52:37.174Z,9.93
2018-04-08T02:55:03.316Z,9.70
2018-04-08T02:57:29.464Z,9.87
2018-04-08T02:59:55.598Z,9.50
2018-04-08T03:02:21.694Z,8.97
2018-04-08T03:04:47.783Z,7.40
2018-04-08T03:07:13.908Z,8.67
2018-04-08T03:09:39.995Z,8.77
2018-04-08T03:12:06.086Z,7.67
2018-04-08T03:14:32.195Z,8.50
2018-04-08T03:16:58.295Z,9.60
2018-04-08T03:19:24.411Z,8.97
2018-04-08T03:21:50.507Z,7.97
2018-04-08T03:24:16.591Z,8.60
2018-04-08T03:26:42.881Z,8.43
2018-04-08T03:29:08.988Z,8.93
2018-04-08T03:31:35.117Z,7.73
2018-04-08T03:34:01.210Z,10.30
2018-04-08T03:36:28.062Z,9.00
2018-04-08T03:38:54.199Z,8.90
2018-04-08T03:41:20.296Z,9.70
2018-04-08T03:43:47.142Z,8.27
2018-04-08T03:46:13.228Z,8.37
2018-04-08T03:48:39.322Z,8.50
2018-04-08T03:51:05.437Z,8.37
2018-04-08T03:53:31.560Z,8.77
2018-04-08T03:55:58.403Z,8.83
2018-04-08T03:58:24.494Z,8.63
2018-04-08T04:00:50.610Z,8.67
2018-04-08T04:03:16.719Z,8.90
2018-04-08T04:05:43.585Z,7.27
2018-04-08T04:08:10.422Z,7.87
2018-04-08T04:10:36.543Z,7.73
2018-04-08T04:13:02.646Z,6.97
2018-04-08T04:15:28.754Z,7.50
2018-04-08T04:17:56.730Z,8.40
2018-04-08T04:20:35.325Z,9.37
2018-04-08T04:23:13.707Z,8.77
2018-04-08T04:25:52.062Z,8.77
2018-04-08T04:28:18.176Z,8.47
2018-04-08T04:30:44.267Z,9.33
2018-04-08T04:33:10.398Z,9.80
2018-04-08T04:35:36.522Z,8.53
2018-04-08T04:38:02.610Z,9.03
2018-04-08T04:40:29.446Z,8.20
2018-04-08T04:42:55.547Z,8.60
2018-04-08T04:45:21.651Z,9.47
2018-04-08T04:47:47.774Z,8.33
2018-04-08T04:50:14.615Z,8.33
2018-04-08T04:52:40.683Z,8.23
2018-04-08T04:55:06.783Z,8.30
2018-04-08T04:57:32.886Z,7.17
2018-04-08T04:59:59.019Z,7.47
2018-04-08T05:02:25.138Z,8.00
2018-04-08T05:04:51.243Z,7.50
2018-04-08T05:07:17.342Z,7.40
2018-04-08T05:09:44.175Z,7.60
2018-04-08T05:12:10.296Z,7.93
2018-04-08T05:14:37.122Z,8.00
2018-04-08T05:17:03.246Z,7.67
2018-04-08T05:19:29.408Z,8.87
2018-04-08T05:21:55.535Z,8.80
2018-04-08T05:24:21.636Z,8.03
2018-04-08T05:26:47.707Z,7.50
2018-04-08T05:29:13.866Z,8.00
2018-04-08T05:31:39.958Z,8.33
2018-04-08T05:34:06.048Z,7.80
2018-04-08T05:36:32.159Z,8.47
2018-04-08T05:38:58.310Z,7.83
2018-04-08T05:41:24.393Z,8.30
2018-04-08T05:43:50.464Z,8.27
2018-04-08T05:46:16.565Z,8.90
2018-04-08T05:48:42.620Z,8.30
2018-04-08T05:51:08.721Z,8.13
2018-04-08T05:53:35.555Z,7.90
2018-04-08T05:56:01.665Z,8.20
2018-04-08T05:58:27.770Z,8.40
2018-04-08T06:00:53.868Z,7.47
2018-04-08T06:03:19.966Z,7.40
2018-04-08T06:05:46.079Z,7.50
2018-04-08T06:08:12.898Z,8.03
2018-04-08T06:10:39.020Z,7.83
2018-04-08T06:13:05.123Z,7.87
2018-04-08T06:15:31.254Z,8.10
2018-04-08T06:17:57.364Z,8.07
2018-04-08T06:20:23.511Z,9.23
2018-04-08T06:22:50.389Z,8.50
2018-04-08T06:25:16.535Z,8.33
2018-04-08T06:27:42.730Z,8.70
2018-04-08T06:30:08.832Z,9.57
2018-04-08T06:32:34.975Z,7.33
2018-04-08T06:35:01.133Z,7.90
2018-04-08T06:37:27.258Z,8.13
2018-04-08T06:39:53.366Z,8.53
2018-04-08T06:42:19.493Z,8.20
2018-04-08T06:44:46.436Z,8.20
2018-04-08T06:47:13.287Z,8.17
2018-04-08T06:49:39.392Z,7.90
2018-04-08T06:52:05.510Z,7.53
2018-04-08T06:54:31.598Z,8.03
2018-04-08T06:56:57.728Z,7.63
2018-04-08T06:59:23.876Z,6.83
2018-04-08T07:01:49.990Z,6.77
2018-04-08T07:04:16.106Z,6.93
2018-04-08T07:06:42.178Z,8.03
2018-04-08T07:09:08.758Z,7.33
2018-04-08T07:11:34.853Z,7.83
2018-04-08T07:14:00.974Z,6.73
2018-04-08T07:16:27.054Z,7.70
2018-04-08T07:18:53.143Z,8.83
2018-04-08T07:21:19.259Z,7.40
2018-04-08T07:23:45.378Z,7.70
2018-04-08T07:26:12.363Z,7.80
2018-04-08T07:28:38.451Z,7.80
2018-04-08T07:31:04.587Z,8.07
2018-04-08T07:33:30.659Z,9.23
2018-04-08T07:35:56.760Z,8.10
2018-04-08T07:38:22.851Z,7.90
2018-04-08T07:40:49.209Z,8.90
2018-04-08T07:43:15.335Z,9.80
2018-04-08T07:45:41.431Z,8.60
2018-04-08T07:48:07.554Z,8.43
2018-04-08T07:50:33.638Z,9.57
2018-04-08T07:52:59.751Z,8.10
2018-04-08T07:55:25.842Z,8.53
2018-04-08T07:57:51.962Z,8.00
2018-04-08T08:00:18.058Z,9.70
2018-04-08T08:02:44.183Z,9.70
2018-04-08T08:05:13.251Z,8.57
2018-04-08T08:07:39.543Z,8.10
2018-04-08T08:10:06.065Z,8.33
2018-04-08T08:12:32.498Z,8.80
2018-04-08T08:14:59.417Z,7.80
2018-04-08T08:17:25.511Z,8.63
2018-04-08T08:19:51.606Z,7.73
2018-04-08T08:22:17.826Z,8.50
2018-04-08T08:24:43.915Z,8.40
2018-04-08T08:27:09.995Z,8.00
2018-04-08T08:29:36.127Z,9.03
2018-04-08T08:32:02.222Z,8.77
2018-04-08T08:34:29.047Z,7.40
2018-04-08T08:36:55.870Z,8.30
2018-04-08T08:39:22.004Z,7.60
2018-04-08T08:41:48.195Z,7.43
2018-04-08T08:44:14.311Z,8.90
2018-04-08T08:46:41.276Z,8.37
2018-04-08T08:49:08.312Z,8.00
2018-04-08T08:51:34.762Z,7.87
2018-04-08T08:54:01.219Z,8.20
2018-04-08T08:56:27.337Z,7.60
2018-04-08T08:58:53.756Z,7.53
2018-04-08T09:01:19.854Z,8.13
2018-04-08T09:03:46.801Z,8.07
2018-04-08T09:06:12.919Z,9.03
2018-04-08T09:08:39.076Z,8.47
2018-04-08T09:11:05.975Z,7.17
2018-04-08T09:13:32.101Z,8.67
2018-04-08T09:15:58.282Z,8.13
2018-04-08T09:18:24.472Z,7.53
2018-04-08T09:20:56.866Z,8.80
2018-04-08T09:23:31.288Z,8.23
2018-04-08T09:25:59.801Z,8.50
2018-04-08T09:28:25.910Z,8.50
2018-04-08T09:30:52.791Z,9.03
2018-04-08T09:33:18.930Z,7.90
2018-04-08T09:35:45.022Z,8.13
2018-04-08T09:38:11.116Z,8.17
2018-04-08T09:40:37.229Z,7.70
2018-04-08T09:43:03.338Z,8.27
2018-04-08T09:45:29.410Z,7.57
2018-04-08T09:47:56.407Z,8.30
2018-04-08T09:50:22.587Z,8.03
2018-04-08T09:52:48.990Z,9.17
2018-04-08T09:55:15.150Z,8.10
2018-04-08T10:01:06.745Z,8.07
2018-04-08T10:03:43.640Z,9.57
2018-04-08T10:06:10.506Z,9.40
2018-04-08T10:08:36.674Z,10.20
2018-04-08T10:11:03.025Z,10.43
2018-04-08T10:13:29.486Z,11.63
2018-04-08T10:15:55.690Z,11.60
2018-04-08T10:18:21.793Z,11.10
2018-04-08T10:20:48.149Z,10.87
2018-04-08T10:23:15.225Z,10.60
2018-04-08T10:25:41.432Z,10.70
2018-04-08T10:28:08.495Z,10.30
2018-04-08T10:30:35.417Z,10.53
2018-04-08T10:33:01.570Z,9.90
2018-04-08T10:35:27.731Z,11.40
2018-04-08T10:37:53.888Z,10.33
2018-04-08T10:40:20.791Z,11.30
2018-04-08T10:42:46.966Z,12.27
2018-04-08T10:45:13.088Z,11.47
2018-04-08T10:47:39.362Z,13.40
2018-04-08T10:50:06.334Z,14.30
2018-04-08T10:52:32.504Z,12.73
2018-04-08T10:54:58.610Z,13.80
2018-04-08T10:57:25.482Z,14.10
2018-04-08T10:59:51.656Z,13.60
2018-04-08T11:02:18.056Z,14.30
2018-04-08T11:04:44.227Z,13.47
2018-04-08T11:07:10.417Z,13.73
2018-04-08T11:09:36.532Z,14.27
2018-04-08T11:12:03.132Z,14.20
2018-04-08T11:14:29.704Z,15.03
2018-04-08T11:16:56.048Z,14.27
2018-04-08T11:19:22.239Z,14.10
2018-04-08T11:21:49.159Z,15.17
2018-04-08T11:24:15.254Z,13.23
2018-04-08T11:26:41.374Z,15.50
2018-04-08T11:29:08.306Z,14.53
2018-04-08T11:31:34.519Z,14.30
2018-04-08T11:34:00.637Z,15.60
2018-04-08T11:36:26.868Z,14.47
2018-04-08T11:38:53.019Z,14.67
2018-04-08T11:41:19.155Z,14.80
2018-04-08T11:43:45.282Z,14.70
2018-04-08T11:46:11.422Z,12.60
2018-04-08T11:48:37.575Z,12.57
2018-04-08T11:51:03.728Z,14.07
2018-04-08T11:53:30.676Z,13.13
2018-04-08T11:55:57.680Z,12.00
2018-04-08T11:58:24.023Z,12.40
2018-04-08T12:00:50.896Z,13.37
2018-04-08T12:03:17.883Z,11.67
2018-04-08T12:05:44.272Z,12.47
2018-04-08T12:08:10.523Z,12.70
2018-04-08T12:10:36.690Z,12.27
2018-04-08T12:13:03.957Z,11.57
2018-04-08T12:15:30.858Z,11.83
2018-04-08T12:17:56.996Z,11.23
2018-04-08T12:20:23.113Z,11.63
2018-04-08T12:22:49.340Z,10.63
2018-04-08T12:25:15.548Z,12.63
2018-04-08T12:27:41.695Z,11.07
2018-04-08T12:30:07.826Z,7.33
2018-04-08T12:32:34.471Z,6.43
2018-04-08T12:35:01.701Z,8.30
2018-04-08T12:37:27.936Z,6.87
2018-04-08T12:39:54.802Z,8.10
2018-04-08T12:42:20.914Z,11.13
2018-04-08T12:44:47.032Z,10.30
2018-04-08T12:47:14.066Z,10.87
2018-04-08T12:49:40.178Z,11.97
2018-04-08T12:52:06.312Z,11.10
2018-04-08T12:54:32.454Z,11.47
2018-04-08T12:56:58.555Z,11.00
2018-04-08T12:59:25.424Z,9.80
2018-04-08T13:01:51.535Z,12.07
2018-04-08T13:04:17.648Z,10.40
2018-04-08T13:06:43.806Z,10.17
2018-04-08T13:09:10.159Z,10.90
2018-04-08T13:11:37.394Z,9.40
2018-04-08T13:14:03.827Z,11.50
2018-04-08T13:16:30.192Z,10.77
2018-04-08T13:18:56.594Z,9.90
2018-04-08T13:21:22.738Z,11.30
2018-04-08T13:23:49.757Z,11.90
2018-04-08T13:26:16.170Z,9.67
2018-04-08T13:28:42.335Z,9.23
2018-04-08T13:31:08.514Z,10.33
2018-04-08T13:33:34.658Z,10.07
2018-04-08T13:36:00.759Z,10.40
2018-04-08T13:38:26.883Z,10.10
2018-04-08T13:40:53.078Z,11.43
2018-04-08T13:43:19.206Z,10.00
2018-04-08T13:45:45.364Z,10.63
2018-04-08T13:48:11.527Z,9.87
2018-04-08T13:50:37.695Z,9.50
2018-04-08T13:53:05.051Z,11.87
2018-04-08T13:55:31.164Z,7.70
2018-04-08T13:57:57.336Z,8.33
2018-04-08T14:00:23.562Z,9.00
2018-04-08T14:02:49.732Z,8.60
2018-04-08T14:05:16.641Z,8.40
2018-04-08T14:07:42.778Z,9.20
2018-04-08T14:10:08.906Z,9.30
2018-04-08T14:12:35.051Z,8.07
2018-04-08T14:15:01.936Z,7.87
2018-04-08T14:17:28.066Z,8.00
2018-04-08T14:19:54.231Z,8.50
2018-04-08T14:22:20.330Z,7.57
2018-04-08T14:24:46.451Z,7.30
2018-04-08T14:27:12.626Z,7.27
2018-04-08T14:29:38.762Z,8.73
2018-04-08T14:32:04.860Z,7.87
2018-04-08T14:34:30.995Z,7.10
2018-04-08T14:36:57.210Z,6.53
2018-04-08T14:39:24.062Z,7.00
2018-04-08T14:41:50.922Z,11.70
2018-04-08T14:44:17.783Z,7.37
2018-04-08T14:46:44.715Z,8.03
2018-04-08T14:49:10.817Z,8.20
2018-04-08T14:51:37.746Z,8.60
2018-04-08T14:54:03.847Z,9.27
2018-04-08T14:56:29.966Z,7.53
2018-04-08T14:58:56.094Z,11.63
2018-04-08T15:01:22.284Z,10.03
2018-04-08T15:03:49.235Z,6.90
2018-04-08T15:06:16.184Z,10.43
2018-04-08T15:08:42.309Z,8.23
2018-04-08T15:11:08.441Z,8.10
2018-04-08T15:13:34.584Z,6.60
2018-04-08T15:16:01.231Z,6.60
2018-04-08T15:18:27.477Z,6.70
2018-04-08T15:20:53.581Z,6.23
2018-04-08T15:23:19.806Z,6.03
2018-04-08T15:25:46.020Z,5.23
2018-04-08T15:28:14.608Z,6.23
2018-04-08T15:30:40.858Z,6.10
2018-04-08T15:33:07.066Z,6.47
2018-04-08T15:35:33.482Z,5.87
2018-04-08T15:37:59.713Z,5.07
2018-04-08T15:40:25.865Z,5.80
2018-04-08T15:42:52.015Z,4.23
2018-04-08T15:45:18.167Z,4.53
2018-04-08T15:47:44.354Z,5.20
2018-04-08T15:50:10.500Z,4.67
2018-04-08T15:52:36.648Z,5.80
2018-04-08T15:55:02.832Z,6.07
2018-04-08T15:57:28.984Z,5.90
2018-04-08T15:59:55.114Z,4.57
2018-04-08T16:02:21.207Z,5.23
2018-04-08T16:04:47.337Z,8.43
2018-04-08T16:07:13.479Z,3.87
2018-04-08T16:09:39.609Z,5.00
2018-04-08T16:12:05.957Z,4.50
2018-04-08T16:14:32.185Z,5.37
2018-04-08T16:16:58.576Z,4.83
2018-04-08T16:19:24.787Z,5.47
2018-04-08T16:21:50.964Z,4.47
2018-04-08T16:24:17.203Z,6.57
2018-04-08T16:26:43.499Z,4.80
2018-04-08T16:29:09.740Z,4.90
2018-04-08T16:31:35.932Z,4.97
2018-04-08T16:34:02.144Z,4.70
2018-04-08T16:36:28.459Z,5.50
2018-04-08T16:38:54.814Z,4.60
2018-04-08T16:41:21.362Z,4.47
2018-04-08T16:43:47.677Z,4.27
2018-04-08T16:46:13.887Z,5.13
2018-04-08T16:48:40.264Z,5.13
2018-04-08T16:51:07.182Z,5.60
2018-04-08T16:53:33.315Z,5.63
2018-04-08T16:55:59.504Z,5.70
2018-04-08T16:58:25.665Z,4.90
2018-04-08T17:00:51.903Z,5.10
2018-04-08T17:03:18.058Z,3.93
2018-04-08T17:05:44.180Z,5.03
2018-04-08T17:08:10.452Z,10.83
2018-04-08T17:10:36.612Z,8.10
2018-04-08T17:13:02.990Z,7.60
2018-04-08T17:15:29.897Z,6.63
2018-04-08T17:17:56.229Z,5.00
2018-04-08T17:20:22.427Z,5.23
2018-04-08T17:22:49.335Z,4.47
2018-04-08T17:25:15.584Z,4.40
2018-04-08T17:27:42.723Z,5.57
2018-04-08T17:30:09.683Z,4.80
2018-04-08T17:32:35.964Z,5.30
2018-04-08T17:35:02.082Z,4.93
2018-04-08T17:37:28.246Z,5.33
2018-04-08T17:39:54.565Z,6.13
2018-04-08T17:42:20.714Z,6.70
2018-04-08T17:44:46.926Z,5.20
2018-04-08T17:47:13.133Z,4.40
2018-04-08T17:49:40.070Z,6.07
2018-04-08T17:52:06.273Z,4.73
2018-04-08T17:54:32.530Z,5.50
2018-04-08T17:57:00.922Z,5.97
2018-04-08T17:59:27.222Z,6.00
2018-04-08T18:01:56.119Z,5.57
2018-04-08T18:04:23.382Z,6.90
2018-04-08T18:06:49.775Z,6.13
2018-04-08T18:09:15.931Z,7.63
2018-04-08T18:11:42.103Z,9.60
2018-04-08T18:14:08.264Z,8.53
2018-04-08T18:16:34.466Z,7.50
2018-04-08T18:19:02.267Z,8.97
2018-04-08T18:21:28.412Z,7.80
2018-04-08T18:23:55.477Z,8.27
2018-04-08T18:26:21.770Z,9.10
2018-04-08T18:28:50.474Z,9.20
2018-04-08T18:31:16.703Z,11.70
2018-04-08T18:33:42.895Z,12.47
2018-04-08T18:36:09.867Z,13.93
2018-04-08T18:38:36.070Z,25.10
2018-04-08T18:41:02.992Z,16.77
2018-04-08T18:43:29.178Z,12.50
2018-04-08T18:45:55.751Z,8.20
2018-04-08T18:48:22.042Z,10.20
2018-04-08T18:50:50.265Z,5.80
2018-04-08T18:53:16.879Z,6.13
2018-04-08T18:55:44.017Z,6.87
2018-04-08T18:58:16.593Z,6.13
2018-04-08T19:00:43.004Z,7.40
2018-04-08T19:03:09.223Z,7.93
2018-04-08T19:05:35.507Z,8.10
2018-04-08T19:08:01.698Z,7.27
2018-04-08T19:10:29.295Z,5.83
2018-04-08T19:12:55.477Z,7.00
2018-04-08T19:15:21.707Z,7.80
2018-04-08T19:17:54.798Z,10.93
2018-04-08T19:20:21.730Z,7.50
2018-04-08T19:22:47.846Z,7.00
2018-04-08T19:25:14.318Z,5.67
2018-04-08T19:27:40.578Z,5.20
2018-04-08T19:30:16.651Z,5.33
2018-04-08T19:32:42.817Z,5.57
2018-04-08T19:35:08.967Z,7.20
2018-04-08T19:37:35.095Z,7.07
2018-04-08T19:40:01.268Z,8.93
2018-04-08T19:42:31.006Z,7.63
2018-04-08T19:44:57.250Z,8.00
2018-04-08T19:47:23.428Z,8.73
2018-04-08T19:49:49.518Z,7.93
2018-04-08T19:52:15.664Z,8.60
2018-04-08T19:54:41.887Z,7.87
2018-04-08T19:57:08.539Z,7.83
2018-04-08T19:59:34.666Z,8.73
2018-04-08T20:02:00.757Z,7.73
2018-04-08T20:04:27.678Z,8.17
2018-04-08T20:06:53.773Z,6.60
2018-04-08T20:09:19.999Z,7.30
2018-04-08T20:11:46.928Z,10.07
2018-04-08T20:14:13.243Z,9.23
2018-04-08T20:16:39.420Z,10.07
2018-04-08T20:19:05.565Z,9.57
2018-04-08T20:21:32.476Z,10.90
2018-04-08T20:23:58.670Z,10.47
2018-04-08T20:26:25.200Z,11.60
2018-04-08T20:28:51.362Z,11.47
2018-04-08T20:31:17.705Z,10.87
2018-04-08T20:33:43.883Z,11.97
2018-04-08T20:36:10.195Z,11.47
2018-04-08T20:38:36.667Z,10.90
2018-04-08T20:41:02.801Z,10.03
2018-04-08T20:43:28.922Z,10.63
2018-04-08T20:45:55.068Z,9.90
2018-04-08T20:48:21.227Z,8.00
2018-04-08T20:50:47.361Z,8.77
2018-04-08T20:53:14.160Z,10.27
2018-04-08T20:55:40.771Z,7.97
2018-04-08T20:58:07.241Z,8.37
2018-04-08T21:00:33.421Z,9.00
2018-04-08T21:03:00.287Z,8.73
2018-04-08T21:05:26.422Z,7.63
2018-04-08T21:07:52.599Z,9.17
2018-04-08T21:10:18.718Z,8.50
2018-04-08T21:12:44.908Z,9.40
2018-04-08T21:15:12.634Z,9.37
2018-04-08T21:17:39.027Z,10.40
2018-04-08T21:20:06.202Z,9.50
2018-04-08T21:22:32.561Z,11.93
2018-04-08T21:25:01.229Z,11.00
2018-04-08T21:27:27.567Z,10.23
2018-04-08T21:29:53.744Z,10.13
2018-04-08T21:32:20.607Z,10.60
2018-04-08T21:34:46.842Z,9.77
2018-04-08T21:37:13.067Z,12.20
2018-04-08T21:39:39.223Z,12.37
2018-04-08T21:42:05.355Z,11.80
2018-04-08T21:44:32.203Z,12.97
2018-04-08T21:46:59.162Z,12.20
2018-04-08T21:49:25.292Z,12.90
2018-04-08T21:51:51.479Z,12.40
2018-04-08T21:54:17.614Z,11.50
2018-04-08T21:56:43.831Z,11.43
2018-04-08T21:59:10.694Z,11.40
2018-04-08T22:01:36.855Z,10.80
2018-04-08T22:04:02.976Z,9.57
2018-04-08T22:06:29.117Z,11.20
2018-04-08T22:08:55.323Z,11.37
2018-04-08T22:11:21.440Z,11.63
2018-04-08T22:13:47.538Z,13.80
2018-04-08T22:16:13.646Z,11.27
2018-04-08T22:18:39.798Z,11.90
2018-04-08T22:21:05.871Z,15.07
2018-04-08T22:23:31.977Z,12.63
2018-04-08T22:25:58.871Z,11.93
2018-04-08T22:28:25.103Z,11.77
2018-04-08T22:30:51.192Z,12.07
2018-04-08T22:33:17.290Z,12.30
2018-04-08T22:35:43.432Z,13.50
2018-04-08T22:38:09.617Z,11.17
2018-04-08T22:40:36.478Z,12.70
2018-04-08T22:43:03.443Z,12.10
2018-04-08T22:45:30.286Z,12.13
2018-04-08T22:47:56.416Z,13.93
2018-04-08T22:50:22.542Z,13.57
2018-04-08T22:52:48.698Z,12.50
2018-04-08T22:55:14.808Z,12.60
2018-04-08T22:57:40.933Z,12.33
2018-04-08T23:00:07.800Z,13.67
2018-04-08T23:02:34.157Z,12.97
2018-04-08T23:05:00.294Z,13.60
2018-04-08T23:07:26.389Z,12.43
2018-04-08T23:09:52.535Z,11.53
2018-04-08T23:12:18.647Z,11.70
2018-04-08T23:14:45.525Z,10.97
2018-04-08T23:17:11.683Z,12.73
2018-04-08T23:19:37.780Z,11.67
2018-04-08T23:22:03.932Z,10.80
2018-04-08T23:24:30.053Z,10.87
2018-04-08T23:26:56.897Z,12.50
2018-04-08T23:29:23.095Z,12.23
2018-04-08T23:31:49.250Z,10.50
2018-04-08T23:34:15.386Z,10.37
2018-04-08T23:36:41.520Z,10.60
2018-04-08T23:39:07.698Z,10.13
2018-04-08T23:41:33.842Z,9.63
2018-04-08T23:44:00.752Z,9.80
2018-04-08T23:46:26.867Z,9.90
2018-04-08T23:48:53.031Z,9.13
2018-04-08T23:51:19.141Z,8.73
2018-04-08T23:53:45.280Z,9.20
2018-04-08T23:56:11.430Z,8.97
2018-04-08T23:58:37.523Z,9.83
